Airfield :
LOGIN :

Register | Disclaimer

   EN    FR    IT 

 










Legend :    VFR   Marginal VFR   IFR   Intensive IFR   Very Intensive IFR
Visi :
Ceiling :
>= 8 km
>= 3000ft
5 to 8 km
1000 to 3000 ft
1500m to 5 km
500 to 1000 ft
800 to 1500m
200 to 500 ft
< 800m
< 200 ft
Symbols :   Thunderstorms  Fog  Heavy snow  Heavy precipitations  Wind > 20 kt
SIGMETs :     Misc.  Thunderstorms  Icing  Turbulence  Mountain Waves  Volcanic Ashes







- Airport Elevation : 5600 ft
- IATA code : SMV


LSZS - Samedan

CURRENT METAR :
  • 172250Z AUTO VRB01KT 9999 NSC 11/10 Q1023

EXPIRED METARs :
  • 172220Z AUTO VRB03KT CAVOK 11/10 Q1023
  • 172150Z AUTO 16005KT CAVOK 13/11 Q1023
  • 172120Z AUTO 15007KT 9999 NSC 13/10 Q1023
  • 172050Z AUTO 16007KT 140V220 9999 NSC 12/10 Q1023
  • 172020Z AUTO 17006KT 9999 NSC 12/10 Q1023

TAF TAF LSZS
Valid from the 17 at 15:00 until the 18 at 00:00 UTC


171425Z 1715/1724 19013KT CAVOK TX17/1715Z
BECMG 1717/1720 VRB03KT
ATIS : +41 81 834 93 24
No reported NOTAMs for that airfield.



MET'MAP, your aeronautical weather chart ! - Copyright ORBIFLY December 2007 - Disclaimer

ORBIFLY MET'MAP TEAM :

Programming & Development : Alexandra Zaïnal
Concept & Development : Baudouin d'Aumeries
Co-Development & Prog : Marc-Olivier Méhu
Technical & hardware support : Manuel Goepfert

Contact : metmap@orbifly.com




SOURCES & CREDITS :

   NOAA